sensor_id;sensor_type;location;lat;lon;timestamp;pressure;altitude;pressure_sealevel;temperature;humidity
65872;BME280;52653;50.080;21.992;2022-08-19T00:00:30;98872.75;;;19.64;79.41
65872;BME280;52653;50.080;21.992;2022-08-19T00:03:07;98866.77;;;19.55;79.13
65872;BME280;52653;50.080;21.992;2022-08-19T00:05:49;98864.52;;;19.47;79.32
65872;BME280;52653;50.080;21.992;2022-08-19T00:08:30;98861.67;;;19.39;79.61
65872;BME280;52653;50.080;21.992;2022-08-19T00:11:05;98861.73;;;19.34;79.57
65872;BME280;52653;50.080;21.992;2022-08-19T00:13:44;98861.37;;;19.31;79.89
65872;BME280;52653;50.080;21.992;2022-08-19T00:16:16;98861.05;;;19.26;79.96
65872;BME280;52653;50.080;21.992;2022-08-19T00:18:57;98861.02;;;19.27;80.15
65872;BME280;52653;50.080;21.992;2022-08-19T00:21:49;98857.70;;;19.26;79.95
65872;BME280;52653;50.080;21.992;2022-08-19T00:24:22;98859.02;;;19.24;80.33
65872;BME280;52653;50.080;21.992;2022-08-19T00:26:54;98857.55;;;19.25;80.63
65872;BME280;52653;50.080;21.992;2022-08-19T00:30:09;98858.56;;;19.26;80.34
65872;BME280;52653;50.080;21.992;2022-08-19T00:32:44;98857.61;;;19.27;80.46
65872;BME280;52653;50.080;21.992;2022-08-19T00:35:16;98856.52;;;19.28;80.12
65872;BME280;52653;50.080;21.992;2022-08-19T00:38:09;98854.40;;;19.24;80.25
65872;BME280;52653;50.080;21.992;2022-08-19T00:40:43;98850.27;;;19.18;80.18
65872;BME280;52653;50.080;21.992;2022-08-19T00:43:25;98849.25;;;19.13;80.36
65872;BME280;52653;50.080;21.992;2022-08-19T00:45:59;98850.64;;;19.10;80.53
65872;BME280;52653;50.080;21.992;2022-08-19T00:48:35;98850.36;;;19.09;80.68
65872;BME280;52653;50.080;21.992;2022-08-19T00:51:08;98847.55;;;19.08;80.58
65872;BME280;52653;50.080;21.992;2022-08-19T00:53:40;98848.46;;;19.07;80.74
65872;BME280;52653;50.080;21.992;2022-08-19T00:56:13;98846.62;;;19.05;80.62
65872;BME280;52653;50.080;21.992;2022-08-19T00:58:48;98851.03;;;19.02;80.63
65872;BME280;52653;50.080;21.992;2022-08-19T01:01:20;98855.91;;;19.00;80.92
65872;BME280;52653;50.080;21.992;2022-08-19T01:03:53;98853.20;;;19.01;80.75
65872;BME280;52653;50.080;21.992;2022-08-19T01:06:28;98853.95;;;19.04;80.91
65872;BME280;52653;50.080;21.992;2022-08-19T01:09:22;98852.20;;;19.03;80.71
65872;BME280;52653;50.080;21.992;2022-08-19T01:12:15;98853.95;;;19.00;80.76
65872;BME280;52653;50.080;21.992;2022-08-19T01:14:53;98849.92;;;18.95;80.71
65872;BME280;52653;50.080;21.992;2022-08-19T01:17:45;98850.36;;;18.94;80.63
65872;BME280;52653;50.080;21.992;2022-08-19T01:20:21;98852.67;;;18.94;80.86
65872;BME280;52653;50.080;21.992;2022-08-19T01:22:55;98852.41;;;18.92;80.92
65872;BME280;52653;50.080;21.992;2022-08-19T01:25:31;98848.50;;;18.88;81.49
65872;BME280;52653;50.080;21.992;2022-08-19T01:28:27;98848.02;;;18.84;81.34
65872;BME280;52653;50.080;21.992;2022-08-19T01:31:15;98847.23;;;18.77;80.95
65872;BME280;52653;50.080;21.992;2022-08-19T01:33:56;98851.08;;;18.67;80.57
65872;BME280;52653;50.080;21.992;2022-08-19T01:36:40;98851.56;;;18.64;81.17
65872;BME280;52653;50.080;21.992;2022-08-19T01:39:15;98850.56;;;18.62;81.15
65872;BME280;52653;50.080;21.992;2022-08-19T01:41:47;98850.30;;;18.60;81.58
65872;BME280;52653;50.080;21.992;2022-08-19T01:44:40;98855.09;;;18.57;81.53
65872;BME280;52653;50.080;21.992;2022-08-19T01:47:32;98854.39;;;18.57;81.86
65872;BME280;52653;50.080;21.992;2022-08-19T01:50:15;98850.63;;;18.57;82.25
65872;BME280;52653;50.080;21.992;2022-08-19T01:53:10;98849.98;;;18.60;82.29
65872;BME280;52653;50.080;21.992;2022-08-19T01:55:44;98848.41;;;18.63;82.05
65872;BME280;52653;50.080;21.992;2022-08-19T01:58:18;98848.11;;;18.65;82.62
65872;BME280;52653;50.080;21.992;2022-08-19T02:01:12;98843.83;;;18.66;82.91
65872;BME280;52653;50.080;21.992;2022-08-19T02:04:04;98842.91;;;18.67;82.95
65872;BME280;52653;50.080;21.992;2022-08-19T02:06:54;98846.07;;;18.68;83.27
65872;BME280;52653;50.080;21.992;2022-08-19T02:09:46;98847.20;;;18.70;83.27
65872;BME280;52653;50.080;21.992;2022-08-19T02:12:37;98837.88;;;18.72;83.38
65872;BME280;52653;50.080;21.992;2022-08-19T02:15:21;98833.88;;;18.70;83.56
65872;BME280;52653;50.080;21.992;2022-08-19T02:18:14;98833.32;;;18.71;83.63
65872;BME280;52653;50.080;21.992;2022-08-19T02:21:00;98829.26;;;18.70;83.70
65872;BME280;52653;50.080;21.992;2022-08-19T02:23:52;98829.00;;;18.72;83.92
65872;BME280;52653;50.080;21.992;2022-08-19T02:26:36;98828.95;;;18.69;83.87
65872;BME280;52653;50.080;21.992;2022-08-19T02:29:26;98824.13;;;18.66;84.28
65872;BME280;52653;50.080;21.992;2022-08-19T02:31:59;98821.98;;;18.66;84.46
65872;BME280;52653;50.080;21.992;2022-08-19T02:34:31;98822.16;;;18.66;84.68
65872;BME280;52653;50.080;21.992;2022-08-19T02:37:03;98822.85;;;18.66;84.53
65872;BME280;52653;50.080;21.992;2022-08-19T02:39:35;98823.05;;;18.66;84.59
65872;BME280;52653;50.080;21.992;2022-08-19T02:42:08;98833.13;;;18.67;84.60
65872;BME280;52653;50.080;21.992;2022-08-19T02:44:40;98839.04;;;18.66;84.31
65872;BME280;52653;50.080;21.992;2022-08-19T02:47:12;98838.21;;;18.65;84.64
65872;BME280;52653;50.080;21.992;2022-08-19T02:49:44;98838.20;;;18.69;84.53
65872;BME280;52653;50.080;21.992;2022-08-19T02:52:19;98837.36;;;18.72;84.40
65872;BME280;52653;50.080;21.992;2022-08-19T02:54:54;98831.01;;;18.67;84.19
65872;BME280;52653;50.080;21.992;2022-08-19T02:57:31;98824.48;;;18.66;84.44
65872;BME280;52653;50.080;21.992;2022-08-19T03:00:06;98824.05;;;18.67;84.24
65872;BME280;52653;50.080;21.992;2022-08-19T03:02:38;98822.58;;;18.69;84.20
65872;BME280;52653;50.080;21.992;2022-08-19T03:05:14;98828.65;;;18.68;84.20
65872;BME280;52653;50.080;21.992;2022-08-19T03:08:10;98831.91;;;18.66;84.31
65872;BME280;52653;50.080;21.992;2022-08-19T03:10:44;98827.42;;;18.67;84.40
65872;BME280;52653;50.080;21.992;2022-08-19T03:13:18;98823.98;;;18.65;84.40
65872;BME280;52653;50.080;21.992;2022-08-19T03:15:50;98822.48;;;18.59;84.40
65872;BME280;52653;50.080;21.992;2022-08-19T03:18:22;98819.00;;;18.53;84.50
65872;BME280;52653;50.080;21.992;2022-08-19T03:20:54;98823.23;;;18.50;85.05
65872;BME280;52653;50.080;21.992;2022-08-19T03:23:26;98818.75;;;18.47;85.21
65872;BME280;52653;50.080;21.992;2022-08-19T03:25:58;98821.73;;;18.48;85.30
65872;BME280;52653;50.080;21.992;2022-08-19T03:28:46;98819.02;;;18.49;85.50
65872;BME280;52653;50.080;21.992;2022-08-19T03:31:28;98815.91;;;18.47;85.32
65872;BME280;52653;50.080;21.992;2022-08-19T03:34:23;98816.28;;;18.47;85.67
65872;BME280;52653;50.080;21.992;2022-08-19T03:36:59;98819.30;;;18.47;85.65
65872;BME280;52653;50.080;21.992;2022-08-19T03:39:31;98818.27;;;18.46;85.87
65872;BME280;52653;50.080;21.992;2022-08-19T03:42:04;98817.93;;;18.49;85.76
65872;BME280;52653;50.080;21.992;2022-08-19T03:44:56;98820.45;;;18.56;85.94
65872;BME280;52653;50.080;21.992;2022-08-19T03:47:28;98823.84;;;18.60;85.61
65872;BME280;52653;50.080;21.992;2022-08-19T03:50:01;98826.74;;;18.67;85.62
65872;BME280;52653;50.080;21.992;2022-08-19T03:52:33;98834.09;;;18.73;85.46
65872;BME280;52653;50.080;21.992;2022-08-19T03:55:05;98839.42;;;18.81;85.12
65872;BME280;52653;50.080;21.992;2022-08-19T03:57:40;98838.98;;;18.86;85.04
65872;BME280;52653;50.080;21.992;2022-08-19T04:00:14;98839.23;;;18.96;84.90
65872;BME280;52653;50.080;21.992;2022-08-19T04:02:46;98845.34;;;19.06;84.58
65872;BME280;52653;50.080;21.992;2022-08-19T04:05:30;98842.95;;;19.18;84.51
65872;BME280;52653;50.080;21.992;2022-08-19T04:08:14;98842.13;;;19.28;84.33
65872;BME280;52653;50.080;21.992;2022-08-19T04:11:12;98845.13;;;19.35;84.15
65872;BME280;52653;50.080;21.992;2022-08-19T04:13:44;98846.65;;;19.40;83.83
65872;BME280;52653;50.080;21.992;2022-08-19T04:16:16;98841.58;;;19.47;83.86
65872;BME280;52653;50.080;21.992;2022-08-19T04:18:50;98843.84;;;19.51;83.61
65872;BME280;52653;50.080;21.992;2022-08-19T04:21:24;98848.35;;;19.53;83.38
65872;BME280;52653;50.080;21.992;2022-08-19T04:23:57;98852.30;;;19.52;83.17
65872;BME280;52653;50.080;21.992;2022-08-19T04:26:30;98855.65;;;19.53;83.31
65872;BME280;52653;50.080;21.992;2022-08-19T04:29:07;98855.73;;;19.55;83.60
65872;BME280;52653;50.080;21.992;2022-08-19T04:31:43;98859.85;;;19.59;83.59
65872;BME280;52653;50.080;21.992;2022-08-19T04:34:28;98868.58;;;19.65;83.37
65872;BME280;52653;50.080;21.992;2022-08-19T04:37:00;98872.30;;;19.73;83.39
65872;BME280;52653;50.080;21.992;2022-08-19T04:39:33;98871.42;;;19.83;83.66
65872;BME280;52653;50.080;21.992;2022-08-19T04:42:28;98875.91;;;20.00;83.65
65872;BME280;52653;50.080;21.992;2022-08-19T04:45:13;98868.32;;;20.16;83.24
65872;BME280;52653;50.080;21.992;2022-08-19T04:47:47;98870.26;;;20.33;83.36
65872;BME280;52653;50.080;21.992;2022-08-19T04:50:41;98867.23;;;20.46;82.73
65872;BME280;52653;50.080;21.992;2022-08-19T04:53:13;98868.02;;;20.59;82.64
65872;BME280;52653;50.080;21.992;2022-08-19T04:55:45;98869.31;;;20.71;82.05
65872;BME280;52653;50.080;21.992;2022-08-19T04:58:17;98869.33;;;20.77;81.75
65872;BME280;52653;50.080;21.992;2022-08-19T05:00:52;98869.34;;;20.83;81.98
65872;BME280;52653;50.080;21.992;2022-08-19T05:03:24;98870.33;;;20.92;82.10
65872;BME280;52653;50.080;21.992;2022-08-19T05:06:00;98872.84;;;21.04;81.67
65872;BME280;52653;50.080;21.992;2022-08-19T05:08:37;98877.30;;;21.27;81.82
65872;BME280;52653;50.080;21.992;2022-08-19T05:11:14;98883.05;;;21.57;81.33
65872;BME280;52653;50.080;21.992;2022-08-19T05:13:47;98890.45;;;21.80;80.69
65872;BME280;52653;50.080;21.992;2022-08-19T05:16:21;98900.49;;;21.95;80.00
65872;BME280;52653;50.080;21.992;2022-08-19T05:18:53;98902.31;;;22.03;79.07
65872;BME280;52653;50.080;21.992;2022-08-19T05:21:40;98903.09;;;22.14;79.10
65872;BME280;52653;50.080;21.992;2022-08-19T05:24:30;98901.23;;;22.25;78.33
65872;BME280;52653;50.080;21.992;2022-08-19T05:27:05;98898.46;;;22.23;77.82
65872;BME280;52653;50.080;21.992;2022-08-19T05:29:37;98898.39;;;22.27;77.99
65872;BME280;52653;50.080;21.992;2022-08-19T05:32:09;98885.27;;;22.37;78.08
65872;BME280;52653;50.080;21.992;2022-08-19T05:34:41;98878.78;;;22.47;78.17
65872;BME280;52653;50.080;21.992;2022-08-19T05:37:13;98874.33;;;22.55;77.53
65872;BME280;52653;50.080;21.992;2022-08-19T05:39:44;98883.43;;;22.67;77.27
65872;BME280;52653;50.080;21.992;2022-08-19T05:42:31;98885.42;;;22.78;77.10
65872;BME280;52653;50.080;21.992;2022-08-19T05:45:04;98880.87;;;22.91;76.62
65872;BME280;52653;50.080;21.992;2022-08-19T05:47:36;98880.73;;;23.02;76.16
65872;BME280;52653;50.080;21.992;2022-08-19T05:50:12;98878.75;;;23.10;75.71
65872;BME280;52653;50.080;21.992;2022-08-19T05:53:04;98873.19;;;23.16;75.58
65872;BME280;52653;50.080;21.992;2022-08-19T05:55:38;98864.46;;;23.24;75.33
65872;BME280;52653;50.080;21.992;2022-08-19T05:58:10;98862.73;;;23.31;75.33
65872;BME280;52653;50.080;21.992;2022-08-19T06:00:54;98858.23;;;23.42;74.83
65872;BME280;52653;50.080;21.992;2022-08-19T06:03:37;98852.39;;;23.55;74.69
65872;BME280;52653;50.080;21.992;2022-08-19T06:06:20;98853.52;;;23.70;74.32
65872;BME280;52653;50.080;21.992;2022-08-19T06:09:08;98854.52;;;23.87;74.19
65872;BME280;52653;50.080;21.992;2022-08-19T06:11:42;98854.19;;;24.06;74.28
65872;BME280;52653;50.080;21.992;2022-08-19T06:14:18;98853.87;;;24.23;73.80
65872;BME280;52653;50.080;21.992;2022-08-19T06:17:17;98859.30;;;24.43;73.37
65872;BME280;52653;50.080;21.992;2022-08-19T06:20:00;98871.36;;;24.60;72.84
65872;BME280;52653;50.080;21.992;2022-08-19T06:22:52;98879.53;;;24.77;71.50
65872;BME280;52653;50.080;21.992;2022-08-19T06:25:26;98877.53;;;24.89;70.88
65872;BME280;52653;50.080;21.992;2022-08-19T06:28:00;98876.84;;;25.04;70.24
65872;BME280;52653;50.080;21.992;2022-08-19T06:30:58;98877.75;;;25.17;69.07
65872;BME280;52653;50.080;21.992;2022-08-19T06:33:32;98882.20;;;25.30;69.48
65872;BME280;52653;50.080;21.992;2022-08-19T06:36:05;98878.23;;;25.46;69.43
65872;BME280;52653;50.080;21.992;2022-08-19T06:38:37;98875.88;;;25.61;68.61
65872;BME280;52653;50.080;21.992;2022-08-19T06:41:09;98873.60;;;25.75;68.22
65872;BME280;52653;50.080;21.992;2022-08-19T06:43:49;98871.15;;;25.89;67.15
65872;BME280;52653;50.080;21.992;2022-08-19T06:46:38;98867.92;;;25.98;67.34
65872;BME280;52653;50.080;21.992;2022-08-19T06:49:11;98863.91;;;26.10;67.23
65872;BME280;52653;50.080;21.992;2022-08-19T06:51:45;98868.48;;;26.17;65.79
65872;BME280;52653;50.080;21.992;2022-08-19T06:54:21;98866.79;;;26.22;65.74
65872;BME280;52653;50.080;21.992;2022-08-19T06:57:01;98863.83;;;26.30;65.93
65872;BME280;52653;50.080;21.992;2022-08-19T06:59:34;98862.30;;;26.41;65.94
65872;BME280;52653;50.080;21.992;2022-08-19T07:02:07;98861.48;;;26.54;65.62
65872;BME280;52653;50.080;21.992;2022-08-19T07:04:41;98865.55;;;26.72;66.31
65872;BME280;52653;50.080;21.992;2022-08-19T07:07:14;98867.38;;;26.94;65.15
65872;BME280;52653;50.080;21.992;2022-08-19T07:09:51;98859.87;;;27.14;64.61
65872;BME280;52653;50.080;21.992;2022-08-19T07:12:32;98854.77;;;27.33;63.67
65872;BME280;52653;50.080;21.992;2022-08-19T07:15:09;98853.39;;;27.42;62.01
65872;BME280;52653;50.080;21.992;2022-08-19T07:17:41;98851.98;;;27.49;61.49
65872;BME280;52653;50.080;21.992;2022-08-19T07:20:24;98852.83;;;27.60;61.37
65872;BME280;52653;50.080;21.992;2022-08-19T07:22:58;98851.15;;;27.74;61.07
65872;BME280;52653;50.080;21.992;2022-08-19T07:25:30;98856.41;;;27.86;60.32
65872;BME280;52653;50.080;21.992;2022-08-19T07:28:03;98860.48;;;28.00;60.17
65872;BME280;52653;50.080;21.992;2022-08-19T07:30:37;98862.40;;;28.13;60.49
65872;BME280;52653;50.080;21.992;2022-08-19T07:33:13;98860.91;;;28.27;60.00
65872;BME280;52653;50.080;21.992;2022-08-19T07:35:45;98862.34;;;28.39;59.30
65872;BME280;52653;50.080;21.992;2022-08-19T07:38:19;98859.46;;;28.50;58.10
65872;BME280;52653;50.080;21.992;2022-08-19T07:40:52;98859.20;;;28.61;58.26
65872;BME280;52653;50.080;21.992;2022-08-19T07:43:24;98863.09;;;28.76;58.18
65872;BME280;52653;50.080;21.992;2022-08-19T07:46:04;98862.27;;;28.90;56.68
65872;BME280;52653;50.080;21.992;2022-08-19T07:48:36;98863.28;;;28.99;56.01
65872;BME280;52653;50.080;21.992;2022-08-19T07:51:10;98867.65;;;29.11;56.94
65872;BME280;52653;50.080;21.992;2022-08-19T07:53:45;98871.02;;;29.23;56.08
65872;BME280;52653;50.080;21.992;2022-08-19T07:56:19;98870.83;;;29.34;53.49
65872;BME280;52653;50.080;21.992;2022-08-19T07:58:52;98875.42;;;29.41;53.24
65872;BME280;52653;50.080;21.992;2022-08-19T08:01:29;98875.36;;;29.53;52.81
65872;BME280;52653;50.080;21.992;2022-08-19T08:04:01;98876.70;;;29.67;52.85
65872;BME280;52653;50.080;21.992;2022-08-19T08:06:54;98877.20;;;29.80;52.42
65872;BME280;52653;50.080;21.992;2022-08-19T08:09:47;98882.52;;;29.92;51.21
65872;BME280;52653;50.080;21.992;2022-08-19T08:12:21;98884.63;;;29.96;49.97
65872;BME280;52653;50.080;21.992;2022-08-19T08:15:23;98878.40;;;29.99;48.55
65872;BME280;52653;50.080;21.992;2022-08-19T08:17:55;98876.59;;;30.03;48.06
65872;BME280;52653;50.080;21.992;2022-08-19T08:20:28;98876.73;;;30.05;47.83
65872;BME280;52653;50.080;21.992;2022-08-19T08:23:00;98882.27;;;30.12;47.70
65872;BME280;52653;50.080;21.992;2022-08-19T08:25:45;98890.52;;;30.20;48.37
65872;BME280;52653;50.080;21.992;2022-08-19T08:28:19;98899.60;;;30.32;48.60
65872;BME280;52653;50.080;21.992;2022-08-19T08:30:51;98904.55;;;30.42;47.91
65872;BME280;52653;50.080;21.992;2022-08-19T08:33:28;98893.61;;;30.52;48.51
65872;BME280;52653;50.080;21.992;2022-08-19T08:36:05;98893.07;;;30.66;48.18
65872;BME280;52653;50.080;21.992;2022-08-19T08:38:38;98894.86;;;30.78;47.36
65872;BME280;52653;50.080;21.992;2022-08-19T08:41:17;98892.83;;;30.86;47.15
65872;BME280;52653;50.080;21.992;2022-08-19T08:43:52;98889.64;;;30.98;47.35
65872;BME280;52653;50.080;21.992;2022-08-19T08:46:29;98888.13;;;31.10;47.22
65872;BME280;52653;50.080;21.992;2022-08-19T08:49:15;98890.95;;;31.22;47.20
65872;BME280;52653;50.080;21.992;2022-08-19T08:52:04;98887.13;;;31.29;45.56
65872;BME280;52653;50.080;21.992;2022-08-19T08:54:40;98881.88;;;31.37;45.81
65872;BME280;52653;50.080;21.992;2022-08-19T08:57:30;98885.97;;;31.43;45.77
65872;BME280;52653;50.080;21.992;2022-08-19T09:00:14;98890.35;;;31.46;45.81
65872;BME280;52653;50.080;21.992;2022-08-19T09:02:47;98891.69;;;31.52;45.85
65872;BME280;52653;50.080;21.992;2022-08-19T09:05:20;98889.89;;;31.59;46.19
65872;BME280;52653;50.080;21.992;2022-08-19T09:08:02;98897.52;;;31.65;44.76
65872;BME280;52653;50.080;21.992;2022-08-19T09:10:39;98901.31;;;31.68;44.43
65872;BME280;52653;50.080;21.992;2022-08-19T09:13:20;98898.36;;;31.70;44.08
65872;BME280;52653;50.080;21.992;2022-08-19T09:15:58;98897.17;;;31.74;44.16
65872;BME280;52653;50.080;21.992;2022-08-19T09:18:42;98894.58;;;31.75;43.81
65872;BME280;52653;50.080;21.992;2022-08-19T09:21:17;98893.42;;;31.77;44.41
65872;BME280;52653;50.080;21.992;2022-08-19T09:23:54;98895.96;;;31.83;43.87
65872;BME280;52653;50.080;21.992;2022-08-19T09:26:30;98897.28;;;31.89;44.09
65872;BME280;52653;50.080;21.992;2022-08-19T09:29:23;98892.96;;;31.96;43.90
65872;BME280;52653;50.080;21.992;2022-08-19T09:31:55;98890.75;;;31.97;43.59
65872;BME280;52653;50.080;21.992;2022-08-19T09:34:26;98886.48;;;32.01;43.73
65872;BME280;52653;50.080;21.992;2022-08-19T09:37:07;98892.96;;;32.10;43.90
65872;BME280;52653;50.080;21.992;2022-08-19T09:39:40;98890.75;;;32.18;43.48
65872;BME280;52653;50.080;21.992;2022-08-19T09:42:13;98892.38;;;32.21;41.01
65872;BME280;52653;50.080;21.992;2022-08-19T09:44:47;98892.89;;;32.20;41.23
65872;BME280;52653;50.080;21.992;2022-08-19T09:47:19;98889.13;;;32.23;42.43
65872;BME280;52653;50.080;21.992;2022-08-19T09:49:52;98884.59;;;32.27;41.88
65872;BME280;52653;50.080;21.992;2022-08-19T09:52:24;98882.41;;;32.34;42.99
65872;BME280;52653;50.080;21.992;2022-08-19T09:55:02;98880.80;;;32.44;42.14
65872;BME280;52653;50.080;21.992;2022-08-19T09:57:37;98882.04;;;32.48;41.02
65872;BME280;52653;50.080;21.992;2022-08-19T10:00:11;98883.56;;;32.51;41.88
65872;BME280;52653;50.080;21.992;2022-08-19T10:02:43;98878.38;;;32.60;42.32
65872;BME280;52653;50.080;21.992;2022-08-19T10:05:15;98882.23;;;32.70;42.15
65872;BME280;52653;50.080;21.992;2022-08-19T10:08:04;98886.20;;;32.81;41.61
65872;BME280;52653;50.080;21.992;2022-08-19T10:10:43;98890.14;;;32.89;41.98
65872;BME280;52653;50.080;21.992;2022-08-19T10:13:18;98887.39;;;32.94;41.51
65872;BME280;52653;50.080;21.992;2022-08-19T10:15:53;98886.15;;;32.99;41.32
65872;BME280;52653;50.080;21.992;2022-08-19T10:18:25;98880.27;;;33.06;41.30
65872;BME280;52653;50.080;21.992;2022-08-19T10:21:06;98872.69;;;33.14;41.14
65872;BME280;52653;50.080;21.992;2022-08-19T10:23:44;98871.42;;;33.18;40.81
65872;BME280;52653;50.080;21.992;2022-08-19T10:26:19;98868.49;;;33.18;39.71
65872;BME280;52653;50.080;21.992;2022-08-19T10:28:51;98865.44;;;33.16;38.84
65872;BME280;52653;50.080;21.992;2022-08-19T10:31:26;98863.17;;;33.15;40.38
65872;BME280;52653;50.080;21.992;2022-08-19T10:34:19;98860.84;;;33.25;39.15
65872;BME280;52653;50.080;21.992;2022-08-19T10:36:58;98855.76;;;33.30;38.88
65872;BME280;52653;50.080;21.992;2022-08-19T10:39:33;98857.69;;;33.34;39.15
65872;BME280;52653;50.080;21.992;2022-08-19T10:42:12;98853.38;;;33.32;37.68
65872;BME280;52653;50.080;21.992;2022-08-19T10:44:45;98852.36;;;33.26;37.57
65872;BME280;52653;50.080;21.992;2022-08-19T10:47:23;98850.56;;;33.27;38.83
65872;BME280;52653;50.080;21.992;2022-08-19T10:50:02;98850.03;;;33.36;39.02
65872;BME280;52653;50.080;21.992;2022-08-19T10:52:56;98849.34;;;33.41;39.74
65872;BME280;52653;50.080;21.992;2022-08-19T10:55:29;98849.33;;;33.49;40.68
65872;BME280;52653;50.080;21.992;2022-08-19T10:58:21;98850.66;;;33.64;40.47
65872;BME280;52653;50.080;21.992;2022-08-19T11:00:57;98853.61;;;33.72;39.95
65872;BME280;52653;50.080;21.992;2022-08-19T11:03:30;98853.64;;;33.76;39.68
65872;BME280;52653;50.080;21.992;2022-08-19T11:06:03;98856.96;;;33.86;39.37
65872;BME280;52653;50.080;21.992;2022-08-19T11:08:35;98857.73;;;33.95;39.07
65872;BME280;52653;50.080;21.992;2022-08-19T11:11:08;98857.36;;;33.92;37.62
65872;BME280;52653;50.080;21.992;2022-08-19T11:13:42;98853.51;;;33.94;38.17
65872;BME280;52653;50.080;21.992;2022-08-19T11:16:17;98852.61;;;34.01;38.30
65872;BME280;52653;50.080;21.992;2022-08-19T11:18:52;98851.40;;;34.08;38.31
65872;BME280;52653;50.080;21.992;2022-08-19T11:21:29;98845.46;;;34.06;36.41
65872;BME280;52653;50.080;21.992;2022-08-19T11:24:04;98843.48;;;34.06;36.40
65872;BME280;52653;50.080;21.992;2022-08-19T11:26:41;98847.38;;;34.10;36.29
65872;BME280;52653;50.080;21.992;2022-08-19T11:29:14;98843.04;;;34.08;35.92
65872;BME280;52653;50.080;21.992;2022-08-19T11:31:50;98845.43;;;34.11;36.69
65872;BME280;52653;50.080;21.992;2022-08-19T11:34:26;98837.70;;;34.18;36.03
65872;BME280;52653;50.080;21.992;2022-08-19T11:36:59;98834.60;;;34.25;36.03
65872;BME280;52653;50.080;21.992;2022-08-19T11:39:33;98829.10;;;34.30;35.51
65872;BME280;52653;50.080;21.992;2022-08-19T11:42:26;98828.68;;;34.28;35.13
65872;BME280;52653;50.080;21.992;2022-08-19T11:45:16;98826.80;;;34.28;35.00
65872;BME280;52653;50.080;21.992;2022-08-19T11:47:48;98825.89;;;34.25;34.24
65872;BME280;52653;50.080;21.992;2022-08-19T11:50:23;98825.39;;;34.19;34.67
65872;BME280;52653;50.080;21.992;2022-08-19T11:52:57;98822.42;;;34.23;35.43
65872;BME280;52653;50.080;21.992;2022-08-19T11:55:30;98816.44;;;34.23;34.63
65872;BME280;52653;50.080;21.992;2022-08-19T11:58:03;98817.64;;;34.17;34.42
65872;BME280;52653;50.080;21.992;2022-08-19T12:00:48;98812.30;;;34.14;35.39
65872;BME280;52653;50.080;21.992;2022-08-19T12:03:20;98810.98;;;34.10;34.62
65872;BME280;52653;50.080;21.992;2022-08-19T12:05:51;98805.50;;;34.07;34.74
65872;BME280;52653;50.080;21.992;2022-08-19T12:08:23;98804.65;;;34.08;35.13
65872;BME280;52653;50.080;21.992;2022-08-19T12:10:55;98806.92;;;34.03;34.77
65872;BME280;52653;50.080;21.992;2022-08-19T12:13:28;98804.46;;;34.00;35.16
65872;BME280;52653;50.080;21.992;2022-08-19T12:16:00;98801.39;;;34.10;35.37
65872;BME280;52653;50.080;21.992;2022-08-19T12:18:38;98793.36;;;34.19;34.69
65872;BME280;52653;50.080;21.992;2022-08-19T12:21:12;98789.27;;;34.22;34.82
65872;BME280;52653;50.080;21.992;2022-08-19T12:23:44;98795.30;;;34.30;35.65
65872;BME280;52653;50.080;21.992;2022-08-19T12:26:17;98791.64;;;34.38;34.52
65872;BME280;52653;50.080;21.992;2022-08-19T12:28:49;98791.38;;;34.43;34.77
65872;BME280;52653;50.080;21.992;2022-08-19T12:31:23;98791.03;;;34.48;34.02
65872;BME280;52653;50.080;21.992;2022-08-19T12:33:56;98788.58;;;34.52;34.60
65872;BME280;52653;50.080;21.992;2022-08-19T12:36:28;98783.14;;;34.55;34.11
65872;BME280;52653;50.080;21.992;2022-08-19T12:39:02;98785.85;;;34.52;34.07
65872;BME280;52653;50.080;21.992;2022-08-19T12:41:34;98778.91;;;34.54;33.90
65872;BME280;52653;50.080;21.992;2022-08-19T12:44:20;98777.83;;;34.52;33.36
65872;BME280;52653;50.080;21.992;2022-08-19T12:47:01;98775.91;;;34.40;33.06
65872;BME280;52653;50.080;21.992;2022-08-19T12:49:37;98776.14;;;34.38;34.06
65872;BME280;52653;50.080;21.992;2022-08-19T12:52:26;98779.21;;;34.37;33.22
65872;BME280;52653;50.080;21.992;2022-08-19T12:54:58;98777.39;;;34.30;32.79
65872;BME280;52653;50.080;21.992;2022-08-19T12:57:34;98776.36;;;34.30;32.89
65872;BME280;52653;50.080;21.992;2022-08-19T13:00:09;98779.06;;;34.30;32.80
65872;BME280;52653;50.080;21.992;2022-08-19T13:02:44;98777.45;;;34.25;32.84
65872;BME280;52653;50.080;21.992;2022-08-19T13:05:19;98774.95;;;34.26;32.74
65872;BME280;52653;50.080;21.992;2022-08-19T13:07:54;98776.15;;;34.33;33.47
65872;BME280;52653;50.080;21.992;2022-08-19T13:10:30;98769.58;;;34.43;33.57
65872;BME280;52653;50.080;21.992;2022-08-19T13:13:06;98763.61;;;34.52;33.62
65872;BME280;52653;50.080;21.992;2022-08-19T13:15:42;98761.44;;;34.50;34.31
65872;BME280;52653;50.080;21.992;2022-08-19T13:18:15;98760.02;;;34.53;34.94
65872;BME280;52653;50.080;21.992;2022-08-19T13:20:48;98756.87;;;34.60;35.50
65872;BME280;52653;50.080;21.992;2022-08-19T13:23:22;98754.48;;;34.68;34.94
65872;BME280;52653;50.080;21.992;2022-08-19T13:26:02;98754.79;;;34.65;34.41
65872;BME280;52653;50.080;21.992;2022-08-19T13:28:35;98756.22;;;34.67;34.37
65872;BME280;52653;50.080;21.992;2022-08-19T13:31:27;98751.45;;;34.63;34.45
65872;BME280;52653;50.080;21.992;2022-08-19T13:34:18;98748.81;;;34.67;34.85
65872;BME280;52653;50.080;21.992;2022-08-19T13:36:53;98746.42;;;34.67;34.21
65872;BME280;52653;50.080;21.992;2022-08-19T13:39:26;98744.48;;;34.62;34.18
65872;BME280;52653;50.080;21.992;2022-08-19T13:41:58;98742.55;;;34.60;34.40
65872;BME280;52653;50.080;21.992;2022-08-19T13:44:31;98742.52;;;34.58;34.30